Sharptown, New Jersey
Current Conditions -  °F | °C
As of 6:51 AM on Sunday 25 Jan 2015 (Local Time) from KILG Reporting Station
Overcast Overcast  
Wind Chill: -2°   Ceiling: 4500
Heat Index:   Visibility: 10mi
Dew Point: -2°   Wind: 13mph
Humidity: 73%   Direction: 250°WSW
Pressure: 29.78"   Gusts: NA
Location:  39.6335°N, 75.3233°W
Report Text: KILG 251151Z AUTO 25011KT 10SM OVC045 02/M02 A2978 RMK AO2 SLP083 70001 T00221022 10022 20000 53029
Loading
Personal Weather Stations






























Interactive Weather Map New forecast layout! Learn more

10-Day Weather Forecast

Advertisements
Track Severe Weather on mobile